sensor_id;sensor_type;location;lat;lon;timestamp;P1;durP1;ratioP1;P2;durP2;ratioP2
71395;SDS011;59888;55.814;37.132;2022-07-04T00:01:16;9.25;;;4.40;;
71395;SDS011;59888;55.814;37.132;2022-07-04T00:03:42;5.85;;;3.90;;
71395;SDS011;59888;55.814;37.132;2022-07-04T00:06:07;7.57;;;4.40;;
71395;SDS011;59888;55.814;37.132;2022-07-04T00:08:33;4.90;;;4.10;;
71395;SDS011;59888;55.814;37.132;2022-07-04T00:10:59;8.23;;;4.30;;
71395;SDS011;59888;55.814;37.132;2022-07-04T00:13:25;10.13;;;4.82;;
71395;SDS011;59888;55.814;37.132;2022-07-04T00:15:51;6.65;;;4.15;;
71395;SDS011;59888;55.814;37.132;2022-07-04T00:18:17;6.85;;;4.30;;
71395;SDS011;59888;55.814;37.132;2022-07-04T00:20:43;6.03;;;4.13;;
71395;SDS011;59888;55.814;37.132;2022-07-04T00:23:09;5.82;;;4.40;;
71395;SDS011;59888;55.814;37.132;2022-07-04T00:25:34;7.93;;;4.05;;
71395;SDS011;59888;55.814;37.132;2022-07-04T00:28:00;8.98;;;4.35;;
71395;SDS011;59888;55.814;37.132;2022-07-04T00:30:26;9.60;;;4.93;;
71395;SDS011;59888;55.814;37.132;2022-07-04T00:32:52;7.50;;;4.82;;
71395;SDS011;59888;55.814;37.132;2022-07-04T00:35:18;7.07;;;4.50;;
71395;SDS011;59888;55.814;37.132;2022-07-04T00:37:44;7.97;;;5.45;;
71395;SDS011;59888;55.814;37.132;2022-07-04T00:40:10;9.68;;;4.70;;
71395;SDS011;59888;55.814;37.132;2022-07-04T00:42:36;6.22;;;4.63;;
71395;SDS011;59888;55.814;37.132;2022-07-04T00:45:02;8.43;;;5.40;;
71395;SDS011;59888;55.814;37.132;2022-07-04T00:47:28;7.05;;;4.22;;
71395;SDS011;59888;55.814;37.132;2022-07-04T00:49:54;8.65;;;5.38;;
71395;SDS011;59888;55.814;37.132;2022-07-04T00:52:20;8.38;;;5.32;;
71395;SDS011;59888;55.814;37.132;2022-07-04T00:54:47;8.02;;;4.85;;
71395;SDS011;59888;55.814;37.132;2022-07-04T00:57:14;12.05;;;5.95;;
71395;SDS011;59888;55.814;37.132;2022-07-04T00:59:40;10.80;;;6.00;;
71395;SDS011;59888;55.814;37.132;2022-07-04T01:02:06;7.97;;;5.10;;
71395;SDS011;59888;55.814;37.132;2022-07-04T01:04:33;8.63;;;5.45;;
71395;SDS011;59888;55.814;37.132;2022-07-04T01:07:00;8.73;;;5.20;;
71395;SDS011;59888;55.814;37.132;2022-07-04T01:09:25;6.93;;;5.00;;
71395;SDS011;59888;55.814;37.132;2022-07-04T01:11:51;10.40;;;5.30;;
71395;SDS011;59888;55.814;37.132;2022-07-04T01:14:17;6.95;;;4.25;;
71395;SDS011;59888;55.814;37.132;2022-07-04T01:16:43;9.50;;;4.97;;
71395;SDS011;59888;55.814;37.132;2022-07-04T01:19:09;9.40;;;4.85;;
71395;SDS011;59888;55.814;37.132;2022-07-04T01:21:35;6.47;;;4.70;;
71395;SDS011;59888;55.814;37.132;2022-07-04T01:24:01;7.43;;;4.15;;
71395;SDS011;59888;55.814;37.132;2022-07-04T01:26:28;8.48;;;4.20;;
71395;SDS011;59888;55.814;37.132;2022-07-04T01:28:54;7.43;;;4.43;;
71395;SDS011;59888;55.814;37.132;2022-07-04T01:31:20;8.70;;;5.10;;
71395;SDS011;59888;55.814;37.132;2022-07-04T01:33:46;6.65;;;4.90;;
71395;SDS011;59888;55.814;37.132;2022-07-04T01:36:12;10.32;;;5.25;;
71395;SDS011;59888;55.814;37.132;2022-07-04T01:38:37;11.38;;;5.43;;
71395;SDS011;59888;55.814;37.132;2022-07-04T01:41:03;13.20;;;5.65;;
71395;SDS011;59888;55.814;37.132;2022-07-04T01:43:29;10.70;;;5.47;;
71395;SDS011;59888;55.814;37.132;2022-07-04T01:45:55;11.20;;;5.40;;
71395;SDS011;59888;55.814;37.132;2022-07-04T01:48:21;10.75;;;5.30;;
71395;SDS011;59888;55.814;37.132;2022-07-04T01:50:47;12.80;;;5.80;;
71395;SDS011;59888;55.814;37.132;2022-07-04T01:53:12;10.27;;;5.18;;
71395;SDS011;59888;55.814;37.132;2022-07-04T01:55:38;10.43;;;5.95;;
71395;SDS011;59888;55.814;37.132;2022-07-04T01:58:06;7.57;;;5.28;;
71395;SDS011;59888;55.814;37.132;2022-07-04T02:00:36;10.00;;;5.30;;
71395;SDS011;59888;55.814;37.132;2022-07-04T02:03:21;8.68;;;5.60;;
71395;SDS011;59888;55.814;37.132;2022-07-04T02:05:46;6.80;;;5.20;;
71395;SDS011;59888;55.814;37.132;2022-07-04T02:08:12;7.63;;;5.35;;
71395;SDS011;59888;55.814;37.132;2022-07-04T02:10:38;9.30;;;5.40;;
71395;SDS011;59888;55.814;37.132;2022-07-04T02:13:04;10.90;;;5.50;;
71395;SDS011;59888;55.814;37.132;2022-07-04T02:17:56;6.78;;;5.25;;
71395;SDS011;59888;55.814;37.132;2022-07-04T02:20:22;8.02;;;5.43;;
71395;SDS011;59888;55.814;37.132;2022-07-04T02:22:48;11.07;;;5.22;;
71395;SDS011;59888;55.814;37.132;2022-07-04T02:25:14;12.98;;;6.10;;
71395;SDS011;59888;55.814;37.132;2022-07-04T02:27:40;10.25;;;5.85;;
71395;SDS011;59888;55.814;37.132;2022-07-04T02:30:07;9.23;;;6.03;;
71395;SDS011;59888;55.814;37.132;2022-07-04T02:32:33;13.63;;;6.07;;
71395;SDS011;59888;55.814;37.132;2022-07-04T02:35:00;9.88;;;6.10;;
71395;SDS011;59888;55.814;37.132;2022-07-04T02:37:26;8.85;;;5.85;;
71395;SDS011;59888;55.814;37.132;2022-07-04T02:39:52;9.10;;;5.70;;
71395;SDS011;59888;55.814;37.132;2022-07-04T02:42:18;10.70;;;5.50;;
71395;SDS011;59888;55.814;37.132;2022-07-04T02:44:44;8.95;;;5.72;;
71395;SDS011;59888;55.814;37.132;2022-07-04T02:47:11;10.07;;;5.43;;
71395;SDS011;59888;55.814;37.132;2022-07-04T02:49:37;9.45;;;5.40;;
71395;SDS011;59888;55.814;37.132;2022-07-04T02:52:03;8.95;;;6.35;;
71395;SDS011;59888;55.814;37.132;2022-07-04T02:54:29;13.45;;;5.35;;
71395;SDS011;59888;55.814;37.132;2022-07-04T02:56:55;6.85;;;5.10;;
71395;SDS011;59888;55.814;37.132;2022-07-04T02:59:21;7.78;;;5.47;;
71395;SDS011;59888;55.814;37.132;2022-07-04T03:05:32;6.90;;;4.77;;
71395;SDS011;59888;55.814;37.132;2022-07-04T03:07:58;8.18;;;4.80;;
71395;SDS011;59888;55.814;37.132;2022-07-04T03:10:24;8.48;;;4.57;;
71395;SDS011;59888;55.814;37.132;2022-07-04T03:12:50;5.85;;;4.20;;
71395;SDS011;59888;55.814;37.132;2022-07-04T03:15:15;7.88;;;4.28;;
71395;SDS011;59888;55.814;37.132;2022-07-04T03:17:41;9.07;;;4.78;;
71395;SDS011;59888;55.814;37.132;2022-07-04T03:20:08;9.93;;;4.93;;
71395;SDS011;59888;55.814;37.132;2022-07-04T03:22:34;8.50;;;4.32;;
71395;SDS011;59888;55.814;37.132;2022-07-04T03:25:00;8.60;;;4.63;;
71395;SDS011;59888;55.814;37.132;2022-07-04T03:27:26;8.75;;;4.00;;
71395;SDS011;59888;55.814;37.132;2022-07-04T03:29:51;7.18;;;4.60;;
71395;SDS011;59888;55.814;37.132;2022-07-04T03:32:17;8.55;;;4.50;;
71395;SDS011;59888;55.814;37.132;2022-07-04T03:34:43;7.85;;;4.65;;
71395;SDS011;59888;55.814;37.132;2022-07-04T03:37:09;7.28;;;4.45;;
71395;SDS011;59888;55.814;37.132;2022-07-04T03:39:35;9.18;;;4.55;;
71395;SDS011;59888;55.814;37.132;2022-07-04T03:42:01;8.23;;;4.60;;
71395;SDS011;59888;55.814;37.132;2022-07-04T03:44:27;8.55;;;4.60;;
71395;SDS011;59888;55.814;37.132;2022-07-04T03:46:52;6.65;;;4.15;;
71395;SDS011;59888;55.814;37.132;2022-07-04T03:49:18;10.73;;;4.53;;
71395;SDS011;59888;55.814;37.132;2022-07-04T03:51:44;7.72;;;4.70;;
71395;SDS011;59888;55.814;37.132;2022-07-04T03:54:10;6.90;;;4.03;;
71395;SDS011;59888;55.814;37.132;2022-07-04T03:56:36;7.75;;;4.20;;
71395;SDS011;59888;55.814;37.132;2022-07-04T03:59:01;6.40;;;4.32;;
71395;SDS011;59888;55.814;37.132;2022-07-04T04:01:27;6.10;;;4.60;;
71395;SDS011;59888;55.814;37.132;2022-07-04T04:03:54;7.72;;;4.90;;
71395;SDS011;59888;55.814;37.132;2022-07-04T04:06:38;9.45;;;4.85;;
71395;SDS011;59888;55.814;37.132;2022-07-04T04:09:04;7.65;;;4.90;;
71395;SDS011;59888;55.814;37.132;2022-07-04T04:11:30;8.48;;;4.57;;
71395;SDS011;59888;55.814;37.132;2022-07-04T04:13:56;7.32;;;4.65;;
71395;SDS011;59888;55.814;37.132;2022-07-04T04:16:22;6.22;;;4.80;;
71395;SDS011;59888;55.814;37.132;2022-07-04T04:18:48;6.40;;;4.65;;
71395;SDS011;59888;55.814;37.132;2022-07-04T04:21:14;8.25;;;4.97;;
71395;SDS011;59888;55.814;37.132;2022-07-04T04:23:39;6.20;;;4.40;;
71395;SDS011;59888;55.814;37.132;2022-07-04T04:26:05;9.75;;;4.80;;
71395;SDS011;59888;55.814;37.132;2022-07-04T04:28:31;6.53;;;4.55;;
71395;SDS011;59888;55.814;37.132;2022-07-04T04:30:57;9.55;;;4.82;;
71395;SDS011;59888;55.814;37.132;2022-07-04T04:33:23;8.85;;;4.90;;
71395;SDS011;59888;55.814;37.132;2022-07-04T04:35:48;6.15;;;4.90;;
71395;SDS011;59888;55.814;37.132;2022-07-04T04:38:14;6.35;;;5.03;;
71395;SDS011;59888;55.814;37.132;2022-07-04T04:40:40;8.18;;;4.80;;
71395;SDS011;59888;55.814;37.132;2022-07-04T04:43:06;8.57;;;4.82;;
71395;SDS011;59888;55.814;37.132;2022-07-04T04:45:32;6.22;;;4.15;;
71395;SDS011;59888;55.814;37.132;2022-07-04T04:47:57;6.78;;;4.90;;
71395;SDS011;59888;55.814;37.132;2022-07-04T04:50:23;6.50;;;4.72;;
71395;SDS011;59888;55.814;37.132;2022-07-04T04:52:49;6.00;;;4.55;;
71395;SDS011;59888;55.814;37.132;2022-07-04T04:55:15;6.95;;;4.80;;
71395;SDS011;59888;55.814;37.132;2022-07-04T04:57:41;5.80;;;4.72;;
71395;SDS011;59888;55.814;37.132;2022-07-04T05:00:07;11.40;;;4.97;;
71395;SDS011;59888;55.814;37.132;2022-07-04T05:02:33;8.35;;;4.70;;
71395;SDS011;59888;55.814;37.132;2022-07-04T05:04:59;6.35;;;5.10;;
71395;SDS011;59888;55.814;37.132;2022-07-04T05:07:25;7.07;;;4.20;;
71395;SDS011;59888;55.814;37.132;2022-07-04T05:09:51;7.20;;;5.07;;
71395;SDS011;59888;55.814;37.132;2022-07-04T05:12:23;7.70;;;4.63;;
71395;SDS011;59888;55.814;37.132;2022-07-04T05:14:50;6.57;;;4.55;;
71395;SDS011;59888;55.814;37.132;2022-07-04T05:17:16;5.57;;;4.50;;
71395;SDS011;59888;55.814;37.132;2022-07-04T05:19:41;4.82;;;4.00;;
71395;SDS011;59888;55.814;37.132;2022-07-04T05:24:53;5.65;;;4.07;;
71395;SDS011;59888;55.814;37.132;2022-07-04T05:27:19;4.93;;;3.83;;
71395;SDS011;59888;55.814;37.132;2022-07-04T05:29:45;4.93;;;3.63;;
71395;SDS011;59888;55.814;37.132;2022-07-04T05:32:10;7.60;;;4.32;;
71395;SDS011;59888;55.814;37.132;2022-07-04T05:34:36;6.40;;;4.18;;
71395;SDS011;59888;55.814;37.132;2022-07-04T05:37:03;7.25;;;4.22;;
71395;SDS011;59888;55.814;37.132;2022-07-04T05:39:29;5.30;;;4.18;;
71395;SDS011;59888;55.814;37.132;2022-07-04T05:41:55;8.73;;;4.43;;
71395;SDS011;59888;55.814;37.132;2022-07-04T05:44:21;9.60;;;4.10;;
71395;SDS011;59888;55.814;37.132;2022-07-04T05:46:47;6.28;;;3.97;;
71395;SDS011;59888;55.814;37.132;2022-07-04T05:49:13;7.80;;;4.30;;
71395;SDS011;59888;55.814;37.132;2022-07-04T05:51:38;6.40;;;4.20;;
71395;SDS011;59888;55.814;37.132;2022-07-04T05:54:04;6.03;;;4.20;;
71395;SDS011;59888;55.814;37.132;2022-07-04T05:56:30;6.45;;;3.97;;
71395;SDS011;59888;55.814;37.132;2022-07-04T05:58:56;8.10;;;4.63;;
71395;SDS011;59888;55.814;37.132;2022-07-04T06:01:22;6.93;;;4.47;;
71395;SDS011;59888;55.814;37.132;2022-07-04T06:03:48;7.65;;;4.25;;
71395;SDS011;59888;55.814;37.132;2022-07-04T06:06:14;7.45;;;4.30;;
71395;SDS011;59888;55.814;37.132;2022-07-04T06:08:42;7.50;;;4.45;;
71395;SDS011;59888;55.814;37.132;2022-07-04T06:11:08;5.15;;;4.63;;
71395;SDS011;59888;55.814;37.132;2022-07-04T06:13:33;5.70;;;4.60;;
71395;SDS011;59888;55.814;37.132;2022-07-04T06:15:59;5.18;;;4.00;;
71395;SDS011;59888;55.814;37.132;2022-07-04T06:18:25;5.75;;;4.05;;
71395;SDS011;59888;55.814;37.132;2022-07-04T06:20:52;5.78;;;4.63;;
71395;SDS011;59888;55.814;37.132;2022-07-04T06:23:18;7.00;;;4.47;;
71395;SDS011;59888;55.814;37.132;2022-07-04T06:25:44;8.13;;;4.25;;
71395;SDS011;59888;55.814;37.132;2022-07-04T06:28:10;6.28;;;4.38;;
71395;SDS011;59888;55.814;37.132;2022-07-04T06:30:36;7.75;;;4.28;;
71395;SDS011;59888;55.814;37.132;2022-07-04T06:33:02;7.63;;;4.30;;
71395;SDS011;59888;55.814;37.132;2022-07-04T06:35:29;4.72;;;4.10;;
71395;SDS011;59888;55.814;37.132;2022-07-04T06:38:12;6.32;;;4.30;;
71395;SDS011;59888;55.814;37.132;2022-07-04T06:40:42;5.93;;;4.10;;
71395;SDS011;59888;55.814;37.132;2022-07-04T06:43:08;5.20;;;4.20;;
71395;SDS011;59888;55.814;37.132;2022-07-04T06:45:35;5.07;;;4.38;;
71395;SDS011;59888;55.814;37.132;2022-07-04T06:48:01;7.70;;;4.18;;
71395;SDS011;59888;55.814;37.132;2022-07-04T06:50:29;4.72;;;3.90;;
71395;SDS011;59888;55.814;37.132;2022-07-04T06:53:01;4.78;;;3.95;;
71395;SDS011;59888;55.814;37.132;2022-07-04T06:55:29;4.50;;;3.70;;
71395;SDS011;59888;55.814;37.132;2022-07-04T06:57:55;5.03;;;3.90;;
71395;SDS011;59888;55.814;37.132;2022-07-04T07:00:21;5.10;;;4.03;;
71395;SDS011;59888;55.814;37.132;2022-07-04T07:02:47;5.47;;;3.88;;
71395;SDS011;59888;55.814;37.132;2022-07-04T07:05:13;5.88;;;3.80;;
71395;SDS011;59888;55.814;37.132;2022-07-04T07:07:38;5.72;;;3.65;;
71395;SDS011;59888;55.814;37.132;2022-07-04T07:10:04;5.15;;;3.97;;
71395;SDS011;59888;55.814;37.132;2022-07-04T07:12:32;6.57;;;3.88;;
71395;SDS011;59888;55.814;37.132;2022-07-04T07:14:59;5.22;;;3.38;;
71395;SDS011;59888;55.814;37.132;2022-07-04T07:17:25;4.97;;;3.70;;
71395;SDS011;59888;55.814;37.132;2022-07-04T07:19:52;5.50;;;4.10;;
71395;SDS011;59888;55.814;37.132;2022-07-04T07:22:18;4.97;;;3.65;;
71395;SDS011;59888;55.814;37.132;2022-07-04T07:24:44;5.53;;;4.30;;
71395;SDS011;59888;55.814;37.132;2022-07-04T07:27:10;5.25;;;3.85;;
71395;SDS011;59888;55.814;37.132;2022-07-04T07:29:36;5.25;;;3.53;;
71395;SDS011;59888;55.814;37.132;2022-07-04T07:32:08;5.30;;;3.83;;
71395;SDS011;59888;55.814;37.132;2022-07-04T07:34:34;4.63;;;3.75;;
71395;SDS011;59888;55.814;37.132;2022-07-04T07:37:00;5.22;;;4.07;;
71395;SDS011;59888;55.814;37.132;2022-07-04T07:39:27;4.10;;;3.55;;
71395;SDS011;59888;55.814;37.132;2022-07-04T07:41:53;5.95;;;3.88;;
71395;SDS011;59888;55.814;37.132;2022-07-04T07:44:19;5.00;;;3.67;;
71395;SDS011;59888;55.814;37.132;2022-07-04T07:46:44;4.95;;;3.70;;
71395;SDS011;59888;55.814;37.132;2022-07-04T07:49:10;4.72;;;3.85;;
71395;SDS011;59888;55.814;37.132;2022-07-04T07:51:36;6.65;;;4.07;;
71395;SDS011;59888;55.814;37.132;2022-07-04T07:54:02;5.53;;;3.78;;
71395;SDS011;59888;55.814;37.132;2022-07-04T07:56:28;5.00;;;3.53;;
71395;SDS011;59888;55.814;37.132;2022-07-04T07:58:54;6.30;;;3.90;;
71395;SDS011;59888;55.814;37.132;2022-07-04T08:01:20;6.32;;;3.53;;
71395;SDS011;59888;55.814;37.132;2022-07-04T08:03:46;4.85;;;3.80;;
71395;SDS011;59888;55.814;37.132;2022-07-04T08:06:32;4.43;;;3.67;;
71395;SDS011;59888;55.814;37.132;2022-07-04T08:08:58;4.88;;;4.00;;
71395;SDS011;59888;55.814;37.132;2022-07-04T08:11:25;3.88;;;3.45;;
71395;SDS011;59888;55.814;37.132;2022-07-04T08:13:51;9.63;;;4.15;;
71395;SDS011;59888;55.814;37.132;2022-07-04T08:16:17;6.53;;;4.10;;
71395;SDS011;59888;55.814;37.132;2022-07-04T08:18:43;6.55;;;3.80;;
71395;SDS011;59888;55.814;37.132;2022-07-04T08:21:09;4.07;;;3.55;;
71395;SDS011;59888;55.814;37.132;2022-07-04T08:23:35;5.50;;;3.80;;
71395;SDS011;59888;55.814;37.132;2022-07-04T08:26:02;4.95;;;3.67;;
71395;SDS011;59888;55.814;37.132;2022-07-04T08:28:29;5.57;;;3.78;;
71395;SDS011;59888;55.814;37.132;2022-07-04T08:30:55;5.75;;;3.97;;
71395;SDS011;59888;55.814;37.132;2022-07-04T08:33:23;6.03;;;3.85;;
71395;SDS011;59888;55.814;37.132;2022-07-04T08:35:50;8.23;;;3.95;;
71395;SDS011;59888;55.814;37.132;2022-07-04T08:38:16;7.13;;;3.78;;
71395;SDS011;59888;55.814;37.132;2022-07-04T08:40:43;6.60;;;3.63;;
71395;SDS011;59888;55.814;37.132;2022-07-04T08:43:13;5.40;;;3.55;;
71395;SDS011;59888;55.814;37.132;2022-07-04T08:45:39;4.70;;;3.42;;
71395;SDS011;59888;55.814;37.132;2022-07-04T08:48:07;4.03;;;3.60;;
71395;SDS011;59888;55.814;37.132;2022-07-04T08:50:36;5.72;;;4.00;;
71395;SDS011;59888;55.814;37.132;2022-07-04T08:53:09;6.13;;;4.18;;
71395;SDS011;59888;55.814;37.132;2022-07-04T08:55:37;4.65;;;3.55;;
71395;SDS011;59888;55.814;37.132;2022-07-04T08:58:23;5.35;;;4.07;;
71395;SDS011;59888;55.814;37.132;2022-07-04T09:01:07;4.50;;;3.65;;
71395;SDS011;59888;55.814;37.132;2022-07-04T09:03:40;5.45;;;3.63;;
71395;SDS011;59888;55.814;37.132;2022-07-04T09:06:08;4.13;;;3.33;;
71395;SDS011;59888;55.814;37.132;2022-07-04T09:08:35;5.93;;;3.70;;
71395;SDS011;59888;55.814;37.132;2022-07-04T09:11:02;6.13;;;3.58;;
71395;SDS011;59888;55.814;37.132;2022-07-04T09:13:29;4.95;;;3.92;;
71395;SDS011;59888;55.814;37.132;2022-07-04T09:15:56;5.78;;;3.20;;
71395;SDS011;59888;55.814;37.132;2022-07-04T09:18:26;5.68;;;3.63;;
71395;SDS011;59888;55.814;37.132;2022-07-04T09:20:57;4.22;;;3.50;;
71395;SDS011;59888;55.814;37.132;2022-07-04T09:23:30;4.78;;;3.92;;
71395;SDS011;59888;55.814;37.132;2022-07-04T09:28:51;4.28;;;3.42;;
71395;SDS011;59888;55.814;37.132;2022-07-04T09:31:23;4.20;;;3.80;;
71395;SDS011;59888;55.814;37.132;2022-07-04T09:36:19;5.60;;;3.97;;
71395;SDS011;59888;55.814;37.132;2022-07-04T09:44:28;4.07;;;3.67;;
71395;SDS011;59888;55.814;37.132;2022-07-04T09:47:24;6.13;;;3.30;;
71395;SDS011;59888;55.814;37.132;2022-07-04T09:52:31;4.60;;;3.55;;
71395;SDS011;59888;55.814;37.132;2022-07-04T09:55:08;4.32;;;3.42;;
71395;SDS011;59888;55.814;37.132;2022-07-04T09:57:34;4.75;;;3.40;;
71395;SDS011;59888;55.814;37.132;2022-07-04T10:00:16;5.53;;;3.47;;
71395;SDS011;59888;55.814;37.132;2022-07-04T10:02:47;4.22;;;3.28;;
71395;SDS011;59888;55.814;37.132;2022-07-04T10:05:17;4.03;;;3.38;;
71395;SDS011;59888;55.814;37.132;2022-07-04T10:07:45;3.67;;;3.30;;
71395;SDS011;59888;55.814;37.132;2022-07-04T10:10:23;4.07;;;3.45;;
71395;SDS011;59888;55.814;37.132;2022-07-04T10:12:51;4.50;;;3.92;;
71395;SDS011;59888;55.814;37.132;2022-07-04T10:15:18;4.15;;;3.28;;
71395;SDS011;59888;55.814;37.132;2022-07-04T10:17:45;5.82;;;3.70;;
71395;SDS011;59888;55.814;37.132;2022-07-04T10:20:11;4.05;;;3.40;;
71395;SDS011;59888;55.814;37.132;2022-07-04T10:22:38;5.47;;;3.65;;
71395;SDS011;59888;55.814;37.132;2022-07-04T10:25:05;5.78;;;3.58;;
71395;SDS011;59888;55.814;37.132;2022-07-04T10:27:33;5.53;;;3.65;;
71395;SDS011;59888;55.814;37.132;2022-07-04T10:29:59;4.65;;;3.40;;
71395;SDS011;59888;55.814;37.132;2022-07-04T10:32:28;6.53;;;3.67;;
71395;SDS011;59888;55.814;37.132;2022-07-04T10:34:55;5.22;;;3.60;;
71395;SDS011;59888;55.814;37.132;2022-07-04T10:37:21;4.15;;;3.75;;
71395;SDS011;59888;55.814;37.132;2022-07-04T10:39:47;7.05;;;3.63;;
71395;SDS011;59888;55.814;37.132;2022-07-04T10:42:23;5.13;;;3.60;;
71395;SDS011;59888;55.814;37.132;2022-07-04T10:44:50;6.82;;;3.72;;
71395;SDS011;59888;55.814;37.132;2022-07-04T10:47:23;4.13;;;3.72;;
71395;SDS011;59888;55.814;37.132;2022-07-04T10:49:50;5.07;;;3.42;;
71395;SDS011;59888;55.814;37.132;2022-07-04T10:52:17;5.60;;;3.55;;
71395;SDS011;59888;55.814;37.132;2022-07-04T10:54:44;4.35;;;3.25;;
71395;SDS011;59888;55.814;37.132;2022-07-04T10:59:42;5.28;;;3.90;;
71395;SDS011;59888;55.814;37.132;2022-07-04T11:02:30;4.72;;;3.67;;
71395;SDS011;59888;55.814;37.132;2022-07-04T11:05:05;6.35;;;3.88;;
71395;SDS011;59888;55.814;37.132;2022-07-04T11:16:06;5.10;;;4.05;;
71395;SDS011;59888;55.814;37.132;2022-07-04T11:18:12;4.40;;;3.60;;
71395;SDS011;59888;55.814;37.132;2022-07-04T11:20:43;5.47;;;3.90;;
71395;SDS011;59888;55.814;37.132;2022-07-04T11:23:18;5.43;;;3.88;;
71395;SDS011;59888;55.814;37.132;2022-07-04T11:25:45;4.40;;;4.00;;
71395;SDS011;59888;55.814;37.132;2022-07-04T11:30:55;4.50;;;3.70;;
71395;SDS011;59888;55.814;37.132;2022-07-04T11:33:24;5.93;;;4.03;;
71395;SDS011;59888;55.814;37.132;2022-07-04T11:36:04;5.03;;;3.90;;
71395;SDS011;59888;55.814;37.132;2022-07-04T11:38:50;4.43;;;4.00;;
71395;SDS011;59888;55.814;37.132;2022-07-04T11:41:20;5.57;;;3.95;;
71395;SDS011;59888;55.814;37.132;2022-07-04T11:44:08;5.63;;;3.95;;
71395;SDS011;59888;55.814;37.132;2022-07-04T11:47:04;7.57;;;4.10;;
71395;SDS011;59888;55.814;37.132;2022-07-04T11:49:36;8.82;;;4.90;;
71395;SDS011;59888;55.814;37.132;2022-07-04T11:52:06;5.65;;;4.03;;
71395;SDS011;59888;55.814;37.132;2022-07-04T11:54:33;4.63;;;3.92;;
71395;SDS011;59888;55.814;37.132;2022-07-04T11:57:11;4.72;;;4.13;;
71395;SDS011;59888;55.814;37.132;2022-07-04T11:59:39;5.78;;;3.83;;
71395;SDS011;59888;55.814;37.132;2022-07-04T12:02:12;5.50;;;4.20;;
71395;SDS011;59888;55.814;37.132;2022-07-04T12:04:40;5.90;;;3.90;;
71395;SDS011;59888;55.814;37.132;2022-07-04T12:07:14;8.82;;;4.82;;
71395;SDS011;59888;55.814;37.132;2022-07-04T12:09:41;5.97;;;4.50;;
71395;SDS011;59888;55.814;37.132;2022-07-04T12:12:09;5.25;;;3.72;;
71395;SDS011;59888;55.814;37.132;2022-07-04T12:14:36;8.27;;;4.22;;
71395;SDS011;59888;55.814;37.132;2022-07-04T12:17:36;6.97;;;4.20;;
71395;SDS011;59888;55.814;37.132;2022-07-04T12:19:59;5.60;;;4.53;;
71395;SDS011;59888;55.814;37.132;2022-07-04T12:23:07;10.02;;;4.78;;
71395;SDS011;59888;55.814;37.132;2022-07-04T12:25:35;4.35;;;3.95;;
71395;SDS011;59888;55.814;37.132;2022-07-04T12:33:23;6.60;;;4.22;;
71395;SDS011;59888;55.814;37.132;2022-07-04T12:46:14;4.28;;;3.65;;
71395;SDS011;59888;55.814;37.132;2022-07-04T12:48:53;4.45;;;4.05;;
71395;SDS011;59888;55.814;37.132;2022-07-04T12:51:24;6.25;;;4.38;;
71395;SDS011;59888;55.814;37.132;2022-07-04T12:53:52;7.45;;;4.22;;
71395;SDS011;59888;55.814;37.132;2022-07-04T12:56:31;4.72;;;3.90;;
71395;SDS011;59888;55.814;37.132;2022-07-04T12:59:16;6.00;;;3.72;;
71395;SDS011;59888;55.814;37.132;2022-07-04T13:01:45;5.38;;;4.20;;
71395;SDS011;59888;55.814;37.132;2022-07-04T13:04:12;5.65;;;3.83;;
71395;SDS011;59888;55.814;37.132;2022-07-04T13:06:38;5.85;;;4.15;;
71395;SDS011;59888;55.814;37.132;2022-07-04T13:09:05;5.40;;;4.00;;
71395;SDS011;59888;55.814;37.132;2022-07-04T13:11:34;4.82;;;3.92;;
71395;SDS011;59888;55.814;37.132;2022-07-04T13:14:20;4.90;;;4.18;;
71395;SDS011;59888;55.814;37.132;2022-07-04T13:16:45;4.88;;;3.95;;
71395;SDS011;59888;55.814;37.132;2022-07-04T13:19:11;5.65;;;4.00;;
71395;SDS011;59888;55.814;37.132;2022-07-04T13:21:37;6.50;;;3.95;;
71395;SDS011;59888;55.814;37.132;2022-07-04T13:24:04;9.52;;;4.20;;
71395;SDS011;59888;55.814;37.132;2022-07-04T13:26:30;9.07;;;3.90;;
71395;SDS011;59888;55.814;37.132;2022-07-04T13:28:57;8.05;;;4.00;;
71395;SDS011;59888;55.814;37.132;2022-07-04T13:31:23;4.20;;;3.80;;
71395;SDS011;59888;55.814;37.132;2022-07-04T13:33:49;4.50;;;4.10;;
71395;SDS011;59888;55.814;37.132;2022-07-04T13:36:15;4.75;;;3.90;;
71395;SDS011;59888;55.814;37.132;2022-07-04T13:38:43;4.93;;;3.90;;
71395;SDS011;59888;55.814;37.132;2022-07-04T13:41:09;5.22;;;3.80;;
71395;SDS011;59888;55.814;37.132;2022-07-04T13:43:35;4.65;;;3.83;;
71395;SDS011;59888;55.814;37.132;2022-07-04T13:46:00;3.78;;;3.38;;
71395;SDS011;59888;55.814;37.132;2022-07-04T13:48:28;4.97;;;3.92;;
71395;SDS011;59888;55.814;37.132;2022-07-04T13:50:54;5.93;;;3.90;;
71395;SDS011;59888;55.814;37.132;2022-07-04T13:53:20;4.10;;;3.70;;
71395;SDS011;59888;55.814;37.132;2022-07-04T13:55:46;4.38;;;3.90;;
71395;SDS011;59888;55.814;37.132;2022-07-04T13:58:12;7.55;;;3.50;;
71395;SDS011;59888;55.814;37.132;2022-07-04T14:00:38;6.65;;;3.65;;
71395;SDS011;59888;55.814;37.132;2022-07-04T14:03:06;4.63;;;3.85;;
71395;SDS011;59888;55.814;37.132;2022-07-04T14:05:33;4.75;;;3.45;;
71395;SDS011;59888;55.814;37.132;2022-07-04T14:07:59;4.15;;;3.47;;
71395;SDS011;59888;55.814;37.132;2022-07-04T14:10:25;5.78;;;3.67;;
71395;SDS011;59888;55.814;37.132;2022-07-04T14:12:51;5.05;;;3.33;;
71395;SDS011;59888;55.814;37.132;2022-07-04T14:15:16;5.65;;;3.30;;
71395;SDS011;59888;55.814;37.132;2022-07-04T14:17:42;4.45;;;3.92;;
71395;SDS011;59888;55.814;37.132;2022-07-04T14:20:09;5.15;;;3.47;;
71395;SDS011;59888;55.814;37.132;2022-07-04T14:22:36;5.82;;;3.70;;
71395;SDS011;59888;55.814;37.132;2022-07-04T14:25:03;3.60;;;3.30;;
71395;SDS011;59888;55.814;37.132;2022-07-04T14:27:30;4.70;;;3.50;;
71395;SDS011;59888;55.814;37.132;2022-07-04T14:29:55;3.58;;;3.20;;
71395;SDS011;59888;55.814;37.132;2022-07-04T14:32:21;4.50;;;3.42;;
71395;SDS011;59888;55.814;37.132;2022-07-04T14:34:48;4.97;;;3.60;;
71395;SDS011;59888;55.814;37.132;2022-07-04T14:37:13;4.43;;;3.38;;
71395;SDS011;59888;55.814;37.132;2022-07-04T14:39:39;3.67;;;3.13;;
71395;SDS011;59888;55.814;37.132;2022-07-04T14:42:05;5.53;;;3.58;;
71395;SDS011;59888;55.814;37.132;2022-07-04T14:44:31;3.53;;;3.17;;
71395;SDS011;59888;55.814;37.132;2022-07-04T14:47:06;4.95;;;3.20;;
71395;SDS011;59888;55.814;37.132;2022-07-04T14:49:32;3.53;;;3.22;;
71395;SDS011;59888;55.814;37.132;2022-07-04T14:51:58;4.78;;;3.55;;
71395;SDS011;59888;55.814;37.132;2022-07-04T14:54:24;3.58;;;3.28;;
71395;SDS011;59888;55.814;37.132;2022-07-04T14:56:50;3.97;;;3.15;;
71395;SDS011;59888;55.814;37.132;2022-07-04T14:59:16;4.97;;;3.70;;
71395;SDS011;59888;55.814;37.132;2022-07-04T15:01:42;5.40;;;3.42;;
71395;SDS011;59888;55.814;37.132;2022-07-04T15:04:08;3.95;;;3.33;;
71395;SDS011;59888;55.814;37.132;2022-07-04T15:06:34;7.72;;;3.40;;
71395;SDS011;59888;55.814;37.132;2022-07-04T15:09:01;4.32;;;3.15;;
71395;SDS011;59888;55.814;37.132;2022-07-04T15:11:28;3.95;;;3.30;;
71395;SDS011;59888;55.814;37.132;2022-07-04T15:13:54;3.53;;;3.22;;
71395;SDS011;59888;55.814;37.132;2022-07-04T15:16:20;4.10;;;3.55;;
71395;SDS011;59888;55.814;37.132;2022-07-04T15:18:46;5.45;;;3.38;;
71395;SDS011;59888;55.814;37.132;2022-07-04T15:21:12;3.60;;;3.03;;
71395;SDS011;59888;55.814;37.132;2022-07-04T15:23:56;3.85;;;2.90;;
71395;SDS011;59888;55.814;37.132;2022-07-04T15:26:38;5.53;;;3.50;;
71395;SDS011;59888;55.814;37.132;2022-07-04T15:29:04;5.07;;;3.72;;